createdAt,value
2018-12-29T00:02:00.673Z,21.50
2018-12-29T00:04:42.919Z,21.30
2018-12-29T00:07:24.729Z,20.50
2018-12-29T00:10:06.467Z,20.33
2018-12-29T00:12:48.332Z,20.70
2018-12-29T00:15:30.064Z,21.40
2018-12-29T00:18:12.051Z,19.87
2018-12-29T00:20:53.553Z,22.53
2018-12-29T00:23:35.002Z,20.33
2018-12-29T00:26:16.873Z,22.97
2018-12-29T00:28:58.565Z,22.10
2018-12-29T00:31:40.657Z,22.63
2018-12-29T00:34:22.692Z,22.43
2018-12-29T00:37:04.267Z,21.67
2018-12-29T00:39:46.607Z,22.53
2018-12-29T00:42:28.382Z,22.57
2018-12-29T00:45:10.393Z,21.43
2018-12-29T00:47:52.252Z,22.20
2018-12-29T00:50:34.271Z,22.33
2018-12-29T00:53:16.163Z,23.90
2018-12-29T00:55:57.667Z,22.23
2018-12-29T00:58:39.580Z,19.70
2018-12-29T01:01:21.887Z,21.13
2018-12-29T01:04:03.732Z,19.83
2018-12-29T01:06:45.743Z,19.60
2018-12-29T01:09:27.955Z,20.93
2018-12-29T01:12:10.189Z,21.23
2018-12-29T01:14:52.516Z,21.63
2018-12-29T01:17:34.309Z,21.27
2018-12-29T01:20:16.188Z,22.20
2018-12-29T01:22:58.341Z,20.80
2018-12-29T01:25:40.433Z,23.00
2018-12-29T01:28:22.224Z,22.83
2018-12-29T01:31:04.048Z,22.43
2018-12-29T01:33:46.006Z,23.30
2018-12-29T01:36:28.152Z,20.97
2018-12-29T01:39:10.221Z,19.97
2018-12-29T01:41:52.097Z,19.60
2018-12-29T01:44:33.698Z,21.97
2018-12-29T01:47:15.386Z,18.97
2018-12-29T01:49:55.702Z,19.80
2018-12-29T01:52:44.947Z,22.07
2018-12-29T01:55:27.160Z,20.83
2018-12-29T01:58:09.396Z,21.10
2018-12-29T02:00:51.344Z,21.13
2018-12-29T02:03:33.918Z,21.10
2018-12-29T02:06:16.096Z,18.60
2018-12-29T02:08:57.962Z,17.20
2018-12-29T02:11:40.146Z,18.93
2018-12-29T02:14:22.007Z,18.93
2018-12-29T02:17:04.107Z,17.40
2018-12-29T02:19:46.048Z,20.07
2018-12-29T02:22:27.846Z,18.90
2018-12-29T02:25:09.843Z,19.23
2018-12-29T02:27:51.344Z,18.20
2018-12-29T02:30:33.362Z,18.23
2018-12-29T02:33:15.487Z,18.43
2018-12-29T02:35:57.337Z,19.03
2018-12-29T02:38:39.927Z,17.23
2018-12-29T02:41:21.763Z,17.47
2018-12-29T02:44:03.872Z,18.60
2018-12-29T02:46:45.976Z,18.77
2018-12-29T02:49:28.026Z,17.13
2018-12-29T02:52:09.812Z,16.90
2018-12-29T02:54:51.512Z,17.73
2018-12-29T02:57:33.598Z,20.27
2018-12-29T03:00:15.557Z,17.97
2018-12-29T03:02:57.711Z,17.93
2018-12-29T03:05:39.757Z,19.50
2018-12-29T03:08:21.721Z,20.17
2018-12-29T03:11:03.633Z,20.47
2018-12-29T03:13:45.437Z,20.87
2018-12-29T03:16:27.610Z,18.30
2018-12-29T03:19:09.631Z,18.27
2018-12-29T03:21:51.461Z,20.33
2018-12-29T03:24:33.170Z,23.33
2018-12-29T03:27:15.207Z,23.63
2018-12-29T03:29:56.915Z,20.23
2018-12-29T03:32:39.247Z,19.20
2018-12-29T03:35:21.284Z,19.47
2018-12-29T03:38:02.974Z,22.47
2018-12-29T03:40:44.691Z,22.33
2018-12-29T03:43:26.916Z,19.43
2018-12-29T03:46:08.548Z,20.23
2018-12-29T03:48:50.485Z,20.30
2018-12-29T03:51:32.401Z,20.00
2018-12-29T03:54:14.354Z,20.93
2018-12-29T03:56:55.704Z,19.77
2018-12-29T03:59:37.611Z,19.67
2018-12-29T04:02:19.510Z,20.83
2018-12-29T04:05:01.125Z,20.97
2018-12-29T04:07:43.085Z,22.50
2018-12-29T04:10:24.831Z,21.60
2018-12-29T04:13:06.652Z,19.57
2018-12-29T04:15:48.308Z,23.37
2018-12-29T04:18:30.440Z,22.10
2018-12-29T04:21:12.769Z,21.67
2018-12-29T04:23:54.495Z,21.83
2018-12-29T04:26:36.724Z,21.77
2018-12-29T04:29:18.708Z,23.77
2018-12-29T04:32:00.976Z,23.17
2018-12-29T04:34:42.761Z,23.70
2018-12-29T04:37:24.370Z,23.60
2018-12-29T04:40:04.918Z,21.40
2018-12-29T04:42:54.117Z,25.00
2018-12-29T04:45:35.802Z,22.80
2018-12-29T04:48:18.045Z,25.03
2018-12-29T04:50:59.744Z,23.37
2018-12-29T04:53:41.413Z,23.20
2018-12-29T04:56:23.146Z,23.80
2018-12-29T04:59:05.483Z,25.27
2018-12-29T05:01:47.944Z,25.30
2018-12-29T05:04:30.184Z,25.00
2018-12-29T05:07:12.206Z,27.23
2018-12-29T05:09:54.343Z,25.43
2018-12-29T05:12:36.171Z,24.93
2018-12-29T05:15:18.046Z,26.43
2018-12-29T05:18:00.018Z,26.50
2018-12-29T05:20:41.800Z,26.43
2018-12-29T05:23:23.231Z,24.77
2018-12-29T05:26:04.802Z,23.47
2018-12-29T05:28:46.538Z,25.57
2018-12-29T05:31:28.590Z,26.33
2018-12-29T05:34:09.918Z,25.40
2018-12-29T05:36:51.781Z,23.27
2018-12-29T05:39:33.440Z,23.73
2018-12-29T05:42:14.749Z,26.90
2018-12-29T05:44:57.370Z,27.13
2018-12-29T05:47:39.260Z,28.33
2018-12-29T05:50:21.140Z,26.53
2018-12-29T05:53:03.188Z,28.00
2018-12-29T05:55:45.014Z,26.37
2018-12-29T05:58:26.986Z,24.47
2018-12-29T06:01:09.226Z,27.93
2018-12-29T06:03:51.423Z,27.30
2018-12-29T06:06:33.241Z,26.93
2018-12-29T06:09:14.844Z,22.83
2018-12-29T06:11:56.689Z,26.17
2018-12-29T06:14:38.233Z,26.30
2018-12-29T06:17:20.400Z,25.53
2018-12-29T06:20:02.292Z,24.77
2018-12-29T06:22:43.834Z,24.67
2018-12-29T06:25:26.074Z,23.87
2018-12-29T06:28:07.862Z,24.83
2018-12-29T06:30:49.609Z,26.67
2018-12-29T06:33:31.656Z,26.47
2018-12-29T06:36:14.744Z,27.20
2018-12-29T06:38:57.051Z,25.47
2018-12-29T06:41:39.289Z,26.50
2018-12-29T06:44:21.190Z,25.63
2018-12-29T06:47:03.414Z,28.70
2018-12-29T06:49:45.145Z,28.50
2018-12-29T06:52:26.835Z,25.47
2018-12-29T06:55:08.966Z,24.13
2018-12-29T06:57:50.626Z,28.27
2018-12-29T07:00:32.571Z,25.17
2018-12-29T07:03:14.528Z,24.47
2018-12-29T07:05:56.250Z,27.80
2018-12-29T07:08:38.272Z,25.30
2018-12-29T07:11:20.596Z,26.77
2018-12-29T07:14:02.534Z,24.10
2018-12-29T07:16:44.422Z,27.00
2018-12-29T07:19:27.225Z,26.53
2018-12-29T07:22:08.904Z,27.23
2018-12-29T07:24:51.020Z,25.07
2018-12-29T07:27:33.324Z,27.33
2018-12-29T07:30:15.231Z,26.97
2018-12-29T07:32:57.522Z,27.53
2018-12-29T07:35:39.391Z,26.10
2018-12-29T07:38:21.514Z,25.57
2018-12-29T07:41:03.577Z,25.67
2018-12-29T07:43:45.406Z,28.00
2018-12-29T07:46:27.636Z,27.90
2018-12-29T07:49:09.360Z,27.63
2018-12-29T07:51:51.244Z,27.17
2018-12-29T07:54:33.670Z,26.37
2018-12-29T07:57:15.976Z,22.87
2018-12-29T07:59:58.975Z,26.97
2018-12-29T08:02:41.106Z,27.00
2018-12-29T08:05:22.950Z,24.97
2018-12-29T08:08:04.715Z,26.73
2018-12-29T08:10:46.099Z,23.83
2018-12-29T08:13:28.002Z,24.93
2018-12-29T08:16:09.709Z,24.77
2018-12-29T08:18:51.264Z,23.63
2018-12-29T08:21:33.415Z,25.60
2018-12-29T08:24:14.811Z,26.23
2018-12-29T08:26:56.652Z,25.87
2018-12-29T08:29:38.396Z,24.93
2018-12-29T08:32:20.596Z,23.77
2018-12-29T08:35:02.550Z,24.73
2018-12-29T08:37:44.613Z,26.33
2018-12-29T08:40:26.646Z,24.33
2018-12-29T08:43:08.835Z,23.67
2018-12-29T08:45:51.177Z,24.30
2018-12-29T08:48:33.122Z,24.67
2018-12-29T08:51:15.241Z,25.83
2018-12-29T08:53:57.411Z,24.63
2018-12-29T08:56:38.898Z,27.10
2018-12-29T08:59:21.022Z,27.13
2018-12-29T09:02:03.032Z,22.43
2018-12-29T09:04:45.224Z,26.40
2018-12-29T09:07:27.269Z,24.07
2018-12-29T09:10:09.198Z,24.43
2018-12-29T09:12:51.274Z,26.07
2018-12-29T09:15:34.342Z,26.30
2018-12-29T09:18:16.177Z,25.23
2018-12-29T09:20:59.244Z,23.57
2018-12-29T09:23:40.542Z,28.57
2018-12-29T09:26:23.698Z,23.37
2018-12-29T09:29:05.490Z,25.47
2018-12-29T09:31:47.710Z,26.57
2018-12-29T09:34:29.565Z,28.40
2018-12-29T09:37:11.420Z,23.93
2018-12-29T09:39:53.622Z,25.33
2018-12-29T09:42:35.367Z,24.33
2018-12-29T09:45:17.582Z,24.73
2018-12-29T09:47:59.436Z,24.30
2018-12-29T09:50:41.084Z,25.87
2018-12-29T09:53:23.082Z,25.23
2018-12-29T09:56:04.750Z,23.27
2018-12-29T09:58:46.668Z,22.77
2018-12-29T10:01:29.393Z,26.50
2018-12-29T10:04:11.637Z,22.60
2018-12-29T10:06:53.269Z,23.33
2018-12-29T10:09:35.526Z,26.83
2018-12-29T10:12:17.473Z,23.63
2018-12-29T10:15:00.678Z,25.93
2018-12-29T10:17:42.395Z,24.87
2018-12-29T10:20:24.579Z,25.40
2018-12-29T10:23:06.353Z,23.80
2018-12-29T10:25:49.051Z,24.87
2018-12-29T10:28:30.816Z,22.80
2018-12-29T10:31:12.924Z,23.10
2018-12-29T10:33:55.413Z,22.37
2018-12-29T10:36:37.323Z,24.50
2018-12-29T10:39:20.158Z,25.47
2018-12-29T10:42:02.105Z,22.70
2018-12-29T10:44:43.712Z,21.67
2018-12-29T10:47:25.924Z,22.50
2018-12-29T10:50:07.912Z,22.40
2018-12-29T10:52:49.730Z,22.90
2018-12-29T10:55:31.432Z,22.47
2018-12-29T10:58:13.858Z,20.30
2018-12-29T11:00:55.804Z,21.97
2018-12-29T11:03:37.743Z,19.67
2018-12-29T11:06:19.283Z,20.33
2018-12-29T11:09:01.059Z,22.97
2018-12-29T11:11:43.842Z,20.77
2018-12-29T11:14:25.802Z,22.13
2018-12-29T11:17:07.814Z,22.27
2018-12-29T11:19:49.363Z,23.33
2018-12-29T11:22:31.683Z,21.77
2018-12-29T11:25:13.992Z,20.97
2018-12-29T11:27:55.652Z,23.10
2018-12-29T11:30:37.728Z,21.80
2018-12-29T11:33:19.833Z,23.50
2018-12-29T11:36:01.682Z,22.73
2018-12-29T11:38:43.808Z,23.73
2018-12-29T11:41:25.938Z,20.87
2018-12-29T11:44:07.791Z,20.77
2018-12-29T11:46:49.670Z,21.37
2018-12-29T11:49:31.975Z,22.20
2018-12-29T11:52:14.397Z,21.10
2018-12-29T11:54:56.396Z,21.03
2018-12-29T11:57:38.382Z,21.17
2018-12-29T12:00:20.297Z,21.40
2018-12-29T12:03:02.557Z,20.50
2018-12-29T12:05:45.913Z,20.67
2018-12-29T12:08:27.627Z,21.30
2018-12-29T12:11:09.654Z,22.37
2018-12-29T12:13:51.742Z,19.60
2018-12-29T12:16:34.676Z,19.40
2018-12-29T12:19:16.039Z,18.00
2018-12-29T12:21:46.794Z,19.53
2018-12-29T12:24:36.492Z,20.13
2018-12-29T12:27:18.732Z,19.83
2018-12-29T12:30:02.127Z,18.73
2018-12-29T12:32:44.123Z,19.70
2018-12-29T12:35:26.346Z,18.03
2018-12-29T12:38:08.482Z,21.50
2018-12-29T12:40:50.677Z,19.83
2018-12-29T12:43:33.111Z,21.50
2018-12-29T12:46:15.416Z,21.17
2018-12-29T12:48:57.320Z,20.50
2018-12-29T12:51:39.477Z,21.90
2018-12-29T12:54:21.990Z,22.50
2018-12-29T12:57:03.908Z,21.10
2018-12-29T12:59:46.494Z,21.80
2018-12-29T13:02:28.258Z,22.10
2018-12-29T13:05:10.402Z,21.40
2018-12-29T13:07:52.194Z,20.83
2018-12-29T13:10:34.361Z,20.83
2018-12-29T13:13:15.892Z,19.03
2018-12-29T13:15:57.537Z,21.37
2018-12-29T13:18:39.493Z,18.73
2018-12-29T13:21:21.491Z,20.10
2018-12-29T13:24:03.576Z,18.80
2018-12-29T13:26:45.832Z,17.17
2018-12-29T13:29:27.716Z,19.80
2018-12-29T13:32:10.004Z,20.73
2018-12-29T13:34:51.935Z,19.57
2018-12-29T13:37:34.412Z,19.97
2018-12-29T13:40:16.245Z,20.40
2018-12-29T13:42:58.208Z,18.33
2018-12-29T13:45:40.420Z,20.07
2018-12-29T13:48:22.460Z,22.90
2018-12-29T13:51:04.923Z,22.23
2018-12-29T13:53:46.706Z,23.20
2018-12-29T13:56:28.723Z,22.37
2018-12-29T13:59:11.067Z,18.40
2018-12-29T14:01:52.975Z,20.17
2018-12-29T14:04:35.088Z,21.57
2018-12-29T14:07:17.039Z,23.27
2018-12-29T14:09:59.162Z,23.13
2018-12-29T14:12:40.928Z,32.10
2018-12-29T14:15:23.143Z,21.23
2018-12-29T14:18:05.007Z,20.87
2018-12-29T14:20:47.245Z,19.57
2018-12-29T14:23:29.087Z,21.77
2018-12-29T14:26:10.805Z,20.07
2018-12-29T14:28:52.799Z,21.83
2018-12-29T14:31:34.919Z,19.00
2018-12-29T14:34:16.872Z,21.67
2018-12-29T14:36:58.606Z,21.27
2018-12-29T14:39:40.268Z,21.03
2018-12-29T14:42:21.754Z,22.93
2018-12-29T14:45:04.058Z,21.73
2018-12-29T14:47:46.178Z,20.73
2018-12-29T14:50:28.039Z,22.20
2018-12-29T14:53:09.948Z,19.13
2018-12-29T14:55:52.227Z,20.27
2018-12-29T14:58:34.166Z,20.67
2018-12-29T15:01:16.334Z,21.87
2018-12-29T15:03:58.494Z,20.10
2018-12-29T15:06:40.607Z,20.53
2018-12-29T15:09:22.458Z,18.63
2018-12-29T15:12:03.999Z,19.83
2018-12-29T15:14:45.587Z,19.90
2018-12-29T15:17:27.823Z,20.27
2018-12-29T15:20:10.392Z,19.87
2018-12-29T15:22:52.253Z,21.23
2018-12-29T15:25:34.176Z,19.20
2018-12-29T15:28:16.557Z,19.80
2018-12-29T15:30:58.785Z,18.97
2018-12-29T15:33:41.035Z,17.57
2018-12-29T15:36:23.066Z,18.37
2018-12-29T15:39:05.334Z,18.93
2018-12-29T15:41:47.741Z,20.60
2018-12-29T15:44:30.991Z,20.63
2018-12-29T15:47:12.782Z,19.47
2018-12-29T15:49:54.500Z,18.87
2018-12-29T15:52:36.380Z,17.90
2018-12-29T15:55:18.053Z,16.60
2018-12-29T15:57:59.750Z,21.10
2018-12-29T16:00:41.718Z,19.87
2018-12-29T16:03:23.789Z,19.40
2018-12-29T16:06:06.152Z,21.60
2018-12-29T16:08:48.229Z,20.83
2018-12-29T16:11:29.982Z,19.47
2018-12-29T16:14:12.142Z,17.70
2018-12-29T16:16:54.200Z,18.50
2018-12-29T16:19:36.346Z,18.63
2018-12-29T16:22:18.664Z,20.53
2018-12-29T16:25:00.984Z,19.43
2018-12-29T16:27:42.907Z,19.30
2018-12-29T16:30:24.856Z,20.77
2018-12-29T16:33:06.801Z,19.67
2018-12-29T16:35:49.241Z,20.23
2018-12-29T16:38:30.840Z,22.20
2018-12-29T16:41:12.926Z,22.07
2018-12-29T16:43:55.024Z,21.33
2018-12-29T16:46:37.224Z,18.30
2018-12-29T16:49:19.012Z,19.40
2018-12-29T16:52:01.061Z,20.50
2018-12-29T16:54:42.976Z,18.47
2018-12-29T16:57:25.077Z,18.33
2018-12-29T17:00:06.994Z,20.97
2018-12-29T17:02:49.386Z,18.63
2018-12-29T17:05:31.683Z,18.33
2018-12-29T17:08:13.900Z,16.63
2018-12-29T17:10:56.368Z,17.40
2018-12-29T17:13:39.570Z,18.77
2018-12-29T17:16:21.510Z,17.03
2018-12-29T17:19:03.837Z,19.07
2018-12-29T17:21:45.704Z,19.27
2018-12-29T17:24:27.899Z,18.30
2018-12-29T17:27:10.489Z,18.60
2018-12-29T17:29:52.194Z,21.23
2018-12-29T17:32:34.375Z,19.13
2018-12-29T17:35:16.519Z,18.73
2018-12-29T17:37:58.590Z,16.93
2018-12-29T17:40:40.784Z,18.10
2018-12-29T17:43:22.951Z,19.27
2018-12-29T17:46:04.966Z,18.97
2018-12-29T17:48:46.504Z,19.07
2018-12-29T17:51:28.488Z,18.03
2018-12-29T17:54:10.760Z,19.87
2018-12-29T17:56:52.893Z,43.43
2018-12-29T17:59:34.838Z,20.03
2018-12-29T18:02:16.549Z,16.93
2018-12-29T18:04:58.466Z,17.27
2018-12-29T18:07:40.921Z,17.83
2018-12-29T18:10:23.017Z,17.93
2018-12-29T18:13:05.335Z,18.50
2018-12-29T18:15:47.755Z,17.53
2018-12-29T18:18:29.102Z,18.23
2018-12-29T18:21:11.623Z,17.40
2018-12-29T18:23:55.939Z,15.63
2018-12-29T18:26:38.252Z,18.67
2018-12-29T18:29:20.900Z,16.17
2018-12-29T18:32:03.435Z,17.87
2018-12-29T18:34:45.563Z,16.30
2018-12-29T18:37:27.408Z,17.03
2018-12-29T18:40:09.849Z,18.23
2018-12-29T18:42:51.910Z,16.47
2018-12-29T18:45:34.025Z,16.77
2018-12-29T18:48:16.494Z,16.30
2018-12-29T18:50:58.892Z,18.33
2018-12-29T18:53:40.931Z,18.10
2018-12-29T18:56:23.025Z,18.50
2018-12-29T18:59:05.032Z,18.00
2018-12-29T19:01:47.076Z,19.20
2018-12-29T19:04:29.204Z,20.73
2018-12-29T19:07:11.082Z,19.83
2018-12-29T19:09:53.187Z,18.67
2018-12-29T19:12:35.179Z,19.23
2018-12-29T19:15:18.556Z,20.57
2018-12-29T19:18:00.196Z,20.67
2018-12-29T19:20:42.673Z,20.53
2018-12-29T19:23:25.059Z,20.80
2018-12-29T19:26:07.153Z,22.20
2018-12-29T19:28:49.584Z,21.57
2018-12-29T19:31:31.862Z,21.07
2018-12-29T19:34:14.167Z,19.77
2018-12-29T19:36:56.056Z,21.63
2018-12-29T19:39:38.752Z,20.37
2018-12-29T19:42:20.333Z,20.60
2018-12-29T19:45:02.708Z,20.93
2018-12-29T19:47:45.817Z,21.33
2018-12-29T19:50:28.747Z,19.97
2018-12-29T19:53:10.932Z,19.57
2018-12-29T19:55:53.089Z,20.30
2018-12-29T19:58:34.987Z,21.57
2018-12-29T20:01:16.481Z,21.90
2018-12-29T20:03:58.523Z,19.83
2018-12-29T20:06:40.425Z,19.03
2018-12-29T20:09:22.540Z,18.40
2018-12-29T20:12:04.787Z,18.60
2018-12-29T20:14:46.948Z,17.40
2018-12-29T20:17:34.931Z,17.97
2018-12-29T20:20:12.715Z,17.60
2018-12-29T20:22:54.834Z,17.87
2018-12-29T20:25:36.428Z,16.93
2018-12-29T20:28:18.596Z,16.13
2018-12-29T20:31:00.642Z,15.70
2018-12-29T20:33:42.642Z,15.27
2018-12-29T20:36:24.732Z,16.43
2018-12-29T20:39:06.722Z,14.83
2018-12-29T20:41:48.687Z,15.07
2018-12-29T20:44:30.619Z,14.23
2018-12-29T20:47:12.422Z,14.27
2018-12-29T20:49:54.526Z,14.33
2018-12-29T20:52:36.124Z,14.70
2018-12-29T20:55:17.400Z,13.93
2018-12-29T20:57:59.622Z,12.37
2018-12-29T21:00:41.447Z,14.70
2018-12-29T21:03:23.519Z,15.53
2018-12-29T21:06:05.457Z,15.20
2018-12-29T21:08:48.031Z,13.53
2018-12-29T21:11:29.866Z,12.47
2018-12-29T21:14:12.508Z,13.50
2018-12-29T21:16:54.422Z,12.67
2018-12-29T21:19:36.731Z,13.60
2018-12-29T21:22:18.428Z,12.53
2018-12-29T21:25:00.458Z,13.40
2018-12-29T21:27:42.331Z,15.17
2018-12-29T21:30:23.054Z,16.20
2018-12-29T21:33:12.446Z,15.90
2018-12-29T21:35:54.418Z,12.67
2018-12-29T21:38:36.658Z,12.30
2018-12-29T21:41:19.045Z,13.53
2018-12-29T21:44:01.209Z,12.53
2018-12-29T21:46:43.447Z,11.90
2018-12-29T21:52:21.620Z,11.80
2018-12-29T21:55:03.530Z,10.90
2018-12-29T21:57:45.752Z,12.50
2018-12-29T22:00:30.715Z,12.23
2018-12-29T22:03:14.550Z,10.67
2018-12-29T22:05:56.638Z,10.30
2018-12-29T22:08:36.896Z,11.17
2018-12-29T22:11:26.370Z,9.57
2018-12-29T22:14:08.388Z,10.57
2018-12-29T22:16:50.727Z,9.70
2018-12-29T22:19:32.858Z,10.07
2018-12-29T22:22:15.929Z,10.57
2018-12-29T22:24:58.130Z,10.40
2018-12-29T22:27:40.099Z,10.37
2018-12-29T22:30:25.847Z,10.23
2018-12-29T22:33:06.458Z,10.27
2018-12-29T22:35:55.801Z,9.70
2018-12-29T22:38:37.637Z,8.27
2018-12-29T22:41:19.531Z,8.13
2018-12-29T22:44:01.910Z,8.90
2018-12-29T22:46:43.747Z,8.67
2018-12-29T22:49:25.907Z,10.23
2018-12-29T22:52:07.677Z,8.70
2018-12-29T22:54:49.465Z,7.53
2018-12-29T22:57:31.349Z,8.30
2018-12-29T23:03:28.188Z,9.27
2018-12-29T23:06:10.620Z,8.50
2018-12-29T23:08:52.680Z,7.77
2018-12-29T23:11:34.953Z,7.87
2018-12-29T23:14:17.081Z,8.97
2018-12-29T23:16:59.401Z,7.93
2018-12-29T23:19:42.522Z,7.07
2018-12-29T23:22:24.388Z,7.27
2018-12-29T23:25:06.393Z,8.70
2018-12-29T23:27:48.403Z,8.50
2018-12-29T23:30:30.411Z,8.53
2018-12-29T23:33:12.451Z,8.50
2018-12-29T23:35:54.270Z,8.33
2018-12-29T23:38:36.341Z,7.80
2018-12-29T23:41:18.382Z,10.10
2018-12-29T23:44:00.441Z,8.43
2018-12-29T23:46:50.003Z,10.40
2018-12-29T23:49:52.292Z,10.17
2018-12-29T23:52:34.192Z,10.33
2018-12-29T23:55:16.595Z,9.17
2018-12-29T23:57:58.625Z,10.63
